createdAt,value
2023-08-17T00:01:13.723Z,100962.28
2023-08-17T00:03:17.113Z,100964.94
2023-08-17T00:05:20.801Z,100957.00
2023-08-17T00:07:24.607Z,100961.41
2023-08-17T00:09:31.254Z,100963.16
2023-08-17T00:11:35.774Z,100964.09
2023-08-17T00:13:40.589Z,100975.50
2023-08-17T00:15:46.319Z,100972.00
2023-08-17T00:17:49.839Z,100980.81
2023-08-17T00:19:53.198Z,100985.22
2023-08-17T00:21:57.124Z,100988.75
2023-08-17T00:24:00.715Z,100986.97
2023-08-17T00:26:04.103Z,100992.25
2023-08-17T00:28:07.765Z,100987.84
2023-08-17T00:30:13.490Z,100985.22
2023-08-17T00:32:18.585Z,100979.03
2023-08-17T00:34:22.123Z,100976.41
2023-08-17T00:36:25.501Z,100963.19
2023-08-17T00:38:27.910Z,100977.28
2023-08-17T00:40:31.338Z,100983.44
2023-08-17T00:42:34.712Z,100986.09
2023-08-17T00:44:38.065Z,100970.22
2023-08-17T00:46:42.920Z,100991.38
2023-08-17T00:48:46.440Z,100986.94
2023-08-17T00:50:51.099Z,100998.41
2023-08-17T00:52:55.902Z,100988.72
2023-08-17T00:54:59.710Z,100989.59
2023-08-17T00:57:07.468Z,100989.59
2023-08-17T00:59:10.940Z,100993.16
2023-08-17T01:01:14.453Z,100985.19
2023-08-17T01:03:20.834Z,100991.38
2023-08-17T01:05:25.464Z,100996.66
2023-08-17T01:07:29.254Z,100990.47
2023-08-17T01:09:33.055Z,100980.75
2023-08-17T01:11:42.002Z,100973.69
2023-08-17T01:13:51.525Z,100971.97
2023-08-17T01:16:00.029Z,100958.75
2023-08-17T01:18:08.041Z,100974.63
2023-08-17T01:20:15.876Z,100967.56
2023-08-17T01:22:23.067Z,100965.78
2023-08-17T01:24:27.892Z,100968.44
2023-08-17T01:26:31.369Z,100969.31
2023-08-17T01:28:34.713Z,100970.22
2023-08-17T01:30:44.755Z,100973.72
2023-08-17T01:32:52.955Z,100976.44
2023-08-17T01:35:03.038Z,100966.72
2023-08-17T01:37:09.694Z,100944.72
2023-08-17T01:39:12.642Z,100964.94
2023-08-17T01:41:17.795Z,100973.78
2023-08-17T01:43:22.625Z,100957.03
2023-08-17T01:45:26.487Z,100974.63
2023-08-17T01:47:30.201Z,100983.44
2023-08-17T01:49:33.606Z,100985.22
2023-08-17T01:51:35.968Z,100979.91
2023-08-17T01:53:39.441Z,100986.09
2023-08-17T01:55:42.873Z,100986.06
2023-08-17T01:57:46.590Z,100974.63
2023-08-17T01:59:49.968Z,100978.16
2023-08-17T02:01:53.362Z,100974.63
2023-08-17T02:03:56.770Z,100973.75
2023-08-17T02:06:00.429Z,100974.66
2023-08-17T02:08:03.862Z,100973.78
2023-08-17T02:10:09.115Z,100972.91
2023-08-17T02:12:12.487Z,100985.19
2023-08-17T02:14:17.803Z,100978.16
2023-08-17T02:16:21.158Z,100973.78
2023-08-17T02:18:24.602Z,100974.66
2023-08-17T02:20:27.955Z,100971.09
2023-08-17T02:22:31.392Z,100972.91
2023-08-17T02:24:34.783Z,100964.94
2023-08-17T02:26:39.397Z,100971.13
2023-08-17T02:28:42.780Z,100965.81
2023-08-17T02:30:48.878Z,100952.63
2023-08-17T02:32:52.228Z,100957.03
2023-08-17T02:34:55.735Z,100945.59
2023-08-17T02:36:59.317Z,100900.69
2023-08-17T02:39:04.348Z,100934.13
2023-08-17T02:41:07.761Z,100947.34
2023-08-17T02:43:11.171Z,100950.88
2023-08-17T02:45:13.669Z,100942.03
2023-08-17T02:47:18.379Z,100939.41
2023-08-17T02:49:22.190Z,100938.53
2023-08-17T02:51:26.685Z,100938.50
2023-08-17T02:53:30.141Z,100937.66
2023-08-17T02:55:33.618Z,100934.06
2023-08-17T02:57:36.093Z,100934.09
2023-08-17T02:59:39.426Z,100929.63
2023-08-17T03:01:42.822Z,100931.41
2023-08-17T03:03:47.596Z,100911.25
2023-08-17T03:05:51.127Z,100935.91
2023-08-17T03:07:54.448Z,100917.41
2023-08-17T03:09:57.800Z,100928.84
2023-08-17T03:12:01.143Z,100892.78
2023-08-17T03:14:04.935Z,100927.97
2023-08-17T03:16:08.507Z,100938.56
2023-08-17T03:18:13.102Z,100935.91
2023-08-17T03:20:17.119Z,100936.75
2023-08-17T03:22:20.550Z,100931.50
2023-08-17T03:24:23.552Z,100936.75
2023-08-17T03:26:28.675Z,100934.16
2023-08-17T03:28:32.225Z,100931.50
2023-08-17T03:30:36.549Z,100920.03
2023-08-17T03:32:40.182Z,100921.81
2023-08-17T03:34:43.904Z,100914.78
2023-08-17T03:36:49.472Z,100927.06
2023-08-17T03:38:53.375Z,100927.97
2023-08-17T03:40:56.718Z,100924.44
2023-08-17T03:43:01.076Z,100941.16
2023-08-17T03:45:05.426Z,100934.13
2023-08-17T03:47:10.406Z,100924.44
2023-08-17T03:49:13.891Z,100936.75
2023-08-17T03:51:17.898Z,100942.91
2023-08-17T03:53:23.307Z,100941.16
2023-08-17T03:55:27.308Z,100941.16
2023-08-17T03:57:33.144Z,100949.06
2023-08-17T03:59:37.774Z,100930.53
2023-08-17T04:01:41.310Z,100953.44
2023-08-17T04:03:44.583Z,100951.69
2023-08-17T04:05:48.087Z,100957.00
2023-08-17T04:07:51.439Z,100959.59
2023-08-17T04:09:56.125Z,100957.81
2023-08-17T04:11:59.485Z,100960.44
2023-08-17T04:14:03.096Z,100958.69
2023-08-17T04:16:11.659Z,100956.91
2023-08-17T04:18:21.312Z,100963.06
2023-08-17T04:20:28.866Z,100968.38
2023-08-17T04:22:32.557Z,100971.03
2023-08-17T04:24:36.075Z,100970.13
2023-08-17T04:26:41.020Z,100956.00
2023-08-17T04:28:44.392Z,100963.06
2023-08-17T04:30:48.471Z,100963.94
2023-08-17T04:32:53.805Z,100974.47
2023-08-17T04:34:57.726Z,100968.31
2023-08-17T04:37:01.102Z,100971.81
2023-08-17T04:39:05.385Z,100970.09
2023-08-17T04:41:09.489Z,100978.09
2023-08-17T04:43:15.506Z,100970.13
2023-08-17T04:45:18.917Z,100973.69
2023-08-17T04:47:24.012Z,100973.69
2023-08-17T04:49:28.234Z,100986.91
2023-08-17T04:51:31.245Z,100992.22
2023-08-17T04:53:34.900Z,100994.91
2023-08-17T04:55:38.365Z,100994.84
2023-08-17T04:57:41.733Z,101001.91
2023-08-17T04:59:48.201Z,101000.13
2023-08-17T05:01:55.404Z,100995.72
2023-08-17T05:03:58.862Z,100994.84
2023-08-17T05:06:03.132Z,101001.88
2023-08-17T05:08:06.990Z,100998.38
2023-08-17T05:10:11.303Z,101002.78
2023-08-17T05:12:16.353Z,101001.00
2023-08-17T05:14:18.786Z,101001.94
2023-08-17T05:16:23.611Z,101002.78
2023-08-17T05:18:27.251Z,100988.66
2023-08-17T05:20:30.614Z,100986.91
2023-08-17T05:22:33.070Z,100998.34
2023-08-17T05:24:37.171Z,101006.28
2023-08-17T05:26:43.017Z,100994.78
2023-08-17T05:28:46.727Z,101001.00
2023-08-17T05:30:51.387Z,100994.00
2023-08-17T05:32:55.492Z,100993.13
2023-08-17T05:34:59.103Z,100937.63
2023-08-17T05:37:03.055Z,101004.56
2023-08-17T05:39:06.739Z,101001.09
2023-08-17T05:41:10.769Z,101002.81
2023-08-17T05:43:14.141Z,101001.06
2023-08-17T05:45:17.670Z,101014.22
2023-08-17T05:47:21.318Z,101008.97
2023-08-17T05:49:26.235Z,101008.97
2023-08-17T05:51:29.672Z,101013.38
2023-08-17T05:53:33.072Z,101010.72
2023-08-17T05:55:36.486Z,101012.41
2023-08-17T05:57:39.882Z,101015.06
2023-08-17T05:59:43.264Z,101012.44
2023-08-17T06:01:46.679Z,101012.47
2023-08-17T06:03:50.850Z,101015.13
2023-08-17T06:05:56.181Z,101016.94
2023-08-17T06:08:00.199Z,101016.84
2023-08-17T06:10:07.132Z,101024.53
2023-08-17T06:12:10.604Z,101002.56
2023-08-17T06:14:14.318Z,101012.44
2023-08-17T06:16:17.936Z,101008.91
2023-08-17T06:18:22.525Z,101014.19
2023-08-17T06:20:25.989Z,101021.13
2023-08-17T06:22:30.685Z,101022.03
2023-08-17T06:24:34.730Z,101021.97
2023-08-17T06:26:38.056Z,101022.09
2023-08-17T06:28:41.488Z,101012.44
2023-08-17T06:30:44.944Z,101009.75
2023-08-17T06:32:48.478Z,101015.09
2023-08-17T06:34:51.967Z,101015.81
2023-08-17T06:37:03.634Z,101014.16
2023-08-17T06:39:09.858Z,101027.25
2023-08-17T06:41:13.377Z,101004.50
2023-08-17T06:43:18.968Z,100973.66
2023-08-17T06:45:23.604Z,101016.78
2023-08-17T06:47:27.583Z,101013.22
2023-08-17T06:49:33.369Z,101019.50
2023-08-17T06:51:36.837Z,101015.97
2023-08-17T06:53:40.307Z,100952.63
2023-08-17T06:55:45.109Z,101030.13
2023-08-17T06:57:50.861Z,101020.41
2023-08-17T06:59:54.185Z,101029.22
2023-08-17T07:01:58.412Z,101021.25
2023-08-17T07:04:01.839Z,101014.22
2023-08-17T07:06:05.330Z,101025.66
2023-08-17T07:08:09.117Z,101023.94
2023-08-17T07:10:13.113Z,101001.00
2023-08-17T07:12:17.933Z,101017.66
2023-08-17T07:14:22.974Z,101030.09
2023-08-17T07:16:26.667Z,101020.38
2023-08-17T07:18:30.019Z,100964.91
2023-08-17T07:20:33.385Z,101025.66
2023-08-17T07:22:36.055Z,101033.59
2023-08-17T07:24:39.423Z,101033.59
2023-08-17T07:26:42.865Z,101035.31
2023-08-17T07:28:47.544Z,101038.03
2023-08-17T07:30:50.009Z,101042.41
2023-08-17T07:32:53.366Z,101026.53
2023-08-17T07:34:56.733Z,101042.44
2023-08-17T07:37:00.223Z,101044.22
2023-08-17T07:39:03.582Z,101049.50
2023-08-17T07:41:06.988Z,101044.22
2023-08-17T07:43:10.606Z,101046.88
2023-08-17T07:45:16.046Z,101047.75
2023-08-17T07:47:20.567Z,101047.75
2023-08-17T07:51:48.740Z,101051.25
2023-08-17T07:53:52.171Z,101051.25
2023-08-17T07:55:56.151Z,101057.44
2023-08-17T07:57:59.812Z,101056.53
2023-08-17T08:00:03.244Z,101060.06
2023-08-17T08:02:13.032Z,101061.81
2023-08-17T08:04:16.445Z,101055.66
2023-08-17T08:06:21.518Z,101060.06
2023-08-17T08:08:24.957Z,101058.31
2023-08-17T08:10:29.962Z,101062.69
2023-08-17T08:12:33.383Z,101061.81
2023-08-17T08:14:36.840Z,101071.53
2023-08-17T08:16:40.263Z,101075.03
2023-08-17T08:18:45.147Z,101066.25
2023-08-17T08:20:48.531Z,101072.38
2023-08-17T08:22:51.937Z,101067.97
2023-08-17T08:24:55.552Z,101065.34
2023-08-17T08:26:58.992Z,101065.34
2023-08-17T08:29:02.578Z,101061.81
2023-08-17T08:31:05.541Z,101061.81
2023-08-17T08:33:09.007Z,101062.69
2023-08-17T08:35:13.877Z,101063.53
2023-08-17T08:37:17.340Z,101053.00
2023-08-17T08:39:20.814Z,101062.69
2023-08-17T08:41:27.681Z,101058.31
2023-08-17T08:43:31.576Z,101061.81
2023-08-17T08:45:35.471Z,101067.13
2023-08-17T08:47:39.346Z,101055.66
2023-08-17T08:49:49.329Z,101063.56
2023-08-17T08:51:54.340Z,101060.06
2023-08-17T08:54:04.217Z,101050.38
2023-08-17T08:56:13.543Z,101051.22
2023-08-17T08:58:18.109Z,101049.44
2023-08-17T09:00:22.284Z,100998.34
2023-08-17T09:02:25.158Z,101059.16
2023-08-17T09:04:29.268Z,101051.22
2023-08-17T09:06:31.815Z,101027.41
2023-08-17T09:08:36.712Z,101035.34
2023-08-17T09:10:40.694Z,101051.22
2023-08-17T09:14:57.379Z,101042.44
2023-08-17T09:17:01.026Z,101044.09
2023-08-17T09:19:04.498Z,101049.31
2023-08-17T09:21:08.205Z,101049.38
2023-08-17T09:23:14.175Z,101050.25
2023-08-17T09:25:24.804Z,101049.41
2023-08-17T09:27:28.220Z,101045.00
2023-08-17T09:29:37.889Z,101035.31
2023-08-17T09:31:41.820Z,101038.78
2023-08-17T09:33:45.633Z,101032.63
2023-08-17T09:35:49.358Z,101041.41
2023-08-17T09:37:52.737Z,101040.47
2023-08-17T09:39:56.497Z,101041.38
2023-08-17T09:42:01.758Z,101041.34
2023-08-17T09:44:05.736Z,101035.91
2023-08-17T09:46:09.614Z,101033.31
2023-08-17T09:48:13.184Z,101022.75
2023-08-17T09:50:16.684Z,101036.81
2023-08-17T09:52:20.978Z,101026.22
2023-08-17T09:54:24.808Z,101028.00
2023-08-17T09:56:29.747Z,101028.09
2023-08-17T09:58:34.544Z,101028.78
2023-08-17T10:00:38.367Z,101036.78
2023-08-17T10:02:41.012Z,101028.91
2023-08-17T10:04:46.570Z,101028.03
2023-08-17T10:06:53.186Z,101011.28
2023-08-17T10:08:59.014Z,101023.56
2023-08-17T10:11:07.144Z,101032.31
2023-08-17T10:13:11.645Z,101032.28
2023-08-17T10:15:20.524Z,101032.38
2023-08-17T10:17:29.066Z,101026.22
2023-08-17T10:19:41.515Z,101021.81
2023-08-17T10:21:49.704Z,101020.91
2023-08-17T10:23:55.117Z,101025.28
2023-08-17T10:25:59.127Z,101018.97
2023-08-17T10:28:04.807Z,101018.16
2023-08-17T10:30:10.093Z,101022.41
2023-08-17T10:32:17.086Z,101027.72
2023-08-17T10:34:21.125Z,101032.25
2023-08-17T10:36:24.927Z,101035.78
2023-08-17T10:38:28.403Z,101017.19
2023-08-17T10:40:37.724Z,101045.56
2023-08-17T10:42:41.208Z,101010.31
2023-08-17T10:44:46.476Z,101034.03
2023-08-17T10:46:49.879Z,101035.81
2023-08-17T10:48:54.797Z,101041.03
2023-08-17T10:51:03.539Z,101031.22
2023-08-17T10:53:11.528Z,101037.50
2023-08-17T10:55:15.040Z,101040.94
2023-08-17T10:57:29.558Z,101034.78
2023-08-17T10:59:33.142Z,101027.53
2023-08-17T11:01:39.329Z,101016.03
2023-08-17T11:03:44.693Z,101037.19
2023-08-17T11:05:51.184Z,101041.78
2023-08-17T11:07:54.811Z,101022.38
2023-08-17T11:09:59.741Z,101039.19
2023-08-17T11:12:04.694Z,101032.06
2023-08-17T11:14:08.137Z,101038.88
2023-08-17T11:16:17.961Z,101031.00
2023-08-17T11:18:22.245Z,101036.47
2023-08-17T11:20:25.333Z,101032.09
2023-08-17T11:22:30.597Z,101030.13
2023-08-17T11:24:34.227Z,101030.94
2023-08-17T11:26:38.526Z,101033.47
2023-08-17T11:28:45.688Z,101033.53
2023-08-17T11:30:59.656Z,101036.06
2023-08-17T11:33:03.625Z,101035.09
2023-08-17T11:35:08.718Z,101037.00
2023-08-17T11:37:13.736Z,101043.22
2023-08-17T11:39:22.025Z,101036.09
2023-08-17T11:41:26.012Z,101033.28
2023-08-17T11:43:31.029Z,101032.34
2023-08-17T11:45:35.105Z,101032.06
2023-08-17T11:47:40.346Z,101030.03
2023-08-17T11:49:44.279Z,101032.50
2023-08-17T11:51:47.786Z,101035.03
2023-08-17T11:53:51.239Z,101032.28
2023-08-17T11:55:56.691Z,101033.03
2023-08-17T11:58:00.900Z,101023.41
2023-08-17T12:00:07.187Z,101036.97
2023-08-17T12:02:11.361Z,101037.69
2023-08-17T12:04:14.882Z,101040.25
2023-08-17T12:06:18.848Z,101034.09
2023-08-17T12:08:22.397Z,101014.91
2023-08-17T12:10:25.825Z,100995.50
2023-08-17T12:12:30.638Z,101033.81
2023-08-17T12:14:34.092Z,101034.47
2023-08-17T12:16:46.998Z,101032.94
2023-08-17T12:18:50.797Z,101032.91
2023-08-17T12:20:54.314Z,101032.84
2023-08-17T12:22:59.777Z,101009.53
2023-08-17T12:25:03.196Z,101001.72
2023-08-17T12:27:07.989Z,101006.03
2023-08-17T12:29:12.882Z,101021.94
2023-08-17T12:31:16.383Z,101027.25
2023-08-17T12:33:19.872Z,101029.78
2023-08-17T12:35:25.451Z,101029.31
2023-08-17T12:37:28.896Z,101028.00
2023-08-17T12:39:32.350Z,101027.13
2023-08-17T12:41:35.816Z,101025.56
2023-08-17T12:43:39.722Z,101028.13
2023-08-17T12:45:44.837Z,101028.22
2023-08-17T12:47:48.848Z,101024.59
2023-08-17T12:49:52.486Z,101027.13
2023-08-17T12:51:56.082Z,101028.72
2023-08-17T12:53:59.513Z,101012.88
2023-08-17T12:56:03.325Z,101032.44
2023-08-17T12:58:07.148Z,101029.50
2023-08-17T13:00:11.537Z,101032.22
2023-08-17T13:02:16.358Z,101031.59
2023-08-17T13:04:19.809Z,101032.66
2023-08-17T13:06:23.767Z,101029.22
2023-08-17T13:08:28.176Z,101017.88
2023-08-17T13:10:31.634Z,101025.66
2023-08-17T13:12:35.137Z,101024.94
2023-08-17T13:14:37.635Z,101002.13
2023-08-17T13:16:41.157Z,101019.69
2023-08-17T13:18:45.914Z,101018.81
2023-08-17T13:20:49.383Z,101007.22
2023-08-17T13:22:52.952Z,101016.72
2023-08-17T13:24:55.457Z,101015.78
2023-08-17T13:26:58.913Z,101025.63
2023-08-17T13:29:02.355Z,101024.69
2023-08-17T13:31:23.157Z,101020.34
2023-08-17T13:33:27.748Z,100998.50
2023-08-17T13:35:32.577Z,101015.03
2023-08-17T13:37:36.660Z,101024.78
2023-08-17T13:39:40.027Z,101019.47
2023-08-17T13:41:43.901Z,101008.69
2023-08-17T13:43:47.420Z,101010.44
2023-08-17T13:45:50.858Z,101004.19
2023-08-17T13:47:54.768Z,101003.47
2023-08-17T13:49:59.549Z,101007.22
2023-08-17T13:52:03.900Z,101007.25
2023-08-17T13:54:07.338Z,101004.50
2023-08-17T13:56:10.729Z,101003.41
2023-08-17T13:58:14.152Z,100999.97
2023-08-17T14:00:18.087Z,101000.88
2023-08-17T14:02:22.684Z,100995.28
2023-08-17T14:04:26.297Z,100999.38
2023-08-17T14:06:29.679Z,100999.25
2023-08-17T14:08:34.435Z,100985.97
2023-08-17T14:10:40.134Z,100981.38
2023-08-17T14:12:44.055Z,100992.13
2023-08-17T14:14:47.574Z,100992.22
2023-08-17T14:16:51.440Z,100963.84
2023-08-17T14:18:55.974Z,100987.63
2023-08-17T14:20:59.420Z,100989.34
2023-08-17T14:23:02.879Z,100994.13
2023-08-17T14:25:08.660Z,100983.22
2023-08-17T14:27:12.356Z,100984.78
2023-08-17T14:29:15.705Z,100981.47
2023-08-17T14:31:19.506Z,100979.69
2023-08-17T14:33:23.100Z,100976.50
2023-08-17T14:35:26.782Z,100968.44
2023-08-17T14:37:30.582Z,100970.13
2023-08-17T14:39:37.644Z,100965.69
2023-08-17T14:41:46.550Z,100962.91
2023-08-17T14:43:50.324Z,100961.25
2023-08-17T14:45:53.884Z,100960.91
2023-08-17T14:47:59.016Z,100958.06
2023-08-17T14:50:02.875Z,100958.81
2023-08-17T14:52:07.147Z,100954.25
2023-08-17T14:54:10.210Z,100946.34
2023-08-17T14:56:13.626Z,100952.56
2023-08-17T14:58:19.290Z,100946.94
2023-08-17T15:00:22.841Z,100951.28
2023-08-17T15:02:26.245Z,100940.13
2023-08-17T15:04:29.634Z,100942.69
2023-08-17T15:06:34.786Z,100938.53
2023-08-17T15:08:38.914Z,100928.88
2023-08-17T15:10:42.358Z,100929.66
2023-08-17T15:12:45.880Z,100889.34
2023-08-17T15:14:50.557Z,100924.75
2023-08-17T15:16:53.979Z,100928.72
2023-08-17T15:18:57.498Z,100932.00
2023-08-17T15:21:00.930Z,100932.47
2023-08-17T15:23:04.612Z,100934.66
2023-08-17T15:25:08.293Z,100933.47
2023-08-17T15:27:11.722Z,100936.41
2023-08-17T15:29:14.145Z,100930.09
2023-08-17T15:31:18.926Z,100925.19
2023-08-17T15:33:22.503Z,100913.13
2023-08-17T15:35:25.957Z,100910.75
2023-08-17T15:37:30.358Z,100918.78
2023-08-17T15:39:34.170Z,100918.81
2023-08-17T15:41:37.635Z,100918.97
2023-08-17T15:43:41.003Z,100919.53
2023-08-17T15:45:44.478Z,100909.66
2023-08-17T15:47:49.627Z,100907.78
2023-08-17T15:49:53.205Z,100898.44
2023-08-17T15:51:56.583Z,100898.09
2023-08-17T15:53:59.968Z,100894.63
2023-08-17T15:56:03.373Z,100823.53
2023-08-17T15:58:07.572Z,100892.19
2023-08-17T16:00:12.101Z,100891.69
2023-08-17T16:02:15.494Z,100898.38
2023-08-17T16:04:20.390Z,100895.69
2023-08-17T16:06:23.806Z,100884.28
2023-08-17T16:08:37.287Z,100886.31
2023-08-17T16:10:51.369Z,100887.91
2023-08-17T16:12:55.956Z,100887.97
2023-08-17T16:14:59.469Z,100879.72
2023-08-17T16:17:02.898Z,100882.06
2023-08-17T16:19:06.296Z,100877.75
2023-08-17T16:21:14.827Z,100881.84
2023-08-17T16:23:22.442Z,100876.22
2023-08-17T16:27:32.897Z,100882.66
2023-08-17T16:29:36.324Z,100873.97
2023-08-17T16:31:39.733Z,100876.66
2023-08-17T16:33:46.107Z,100877.81
2023-08-17T16:35:49.560Z,100879.97
2023-08-17T16:37:54.321Z,100872.88
2023-08-17T16:39:57.666Z,100869.59
2023-08-17T16:42:01.071Z,100866.66
2023-08-17T16:44:06.252Z,100862.19
2023-08-17T16:48:24.195Z,100857.84
2023-08-17T16:50:33.401Z,100864.44
2023-08-17T16:52:39.636Z,100854.63
2023-08-17T16:54:47.235Z,100850.31
2023-08-17T16:56:53.915Z,100848.50
2023-08-17T16:59:01.821Z,100851.47
2023-08-17T17:01:13.675Z,100853.88
2023-08-17T17:03:18.076Z,100857.25
2023-08-17T17:05:21.738Z,100863.19
2023-08-17T17:07:25.623Z,100864.63
2023-08-17T17:09:29.580Z,100865.03
2023-08-17T17:11:34.563Z,100867.75
2023-08-17T17:13:38.525Z,100868.66
2023-08-17T17:15:42.499Z,100875.16
2023-08-17T17:17:47.551Z,100888.63
2023-08-17T17:19:51.083Z,100885.25
2023-08-17T17:21:54.451Z,100896.22
2023-08-17T17:23:57.913Z,100896.09
2023-08-17T17:26:08.407Z,100907.53
2023-08-17T17:28:13.295Z,100901.22
2023-08-17T17:30:16.732Z,100901.34
2023-08-17T17:32:20.129Z,100901.56
2023-08-17T17:34:23.583Z,100904.72
2023-08-17T17:36:26.979Z,100901.63
2023-08-17T17:38:30.435Z,100902.22
2023-08-17T17:40:33.851Z,100904.06
2023-08-17T17:42:37.222Z,100909.78
2023-08-17T17:44:42.108Z,100901.41
2023-08-17T17:46:44.665Z,100906.66
2023-08-17T17:48:48.169Z,100899.88
2023-08-17T17:50:51.673Z,100841.50
2023-08-17T17:52:55.215Z,100910.50
2023-08-17T17:54:58.603Z,100905.72
2023-08-17T17:57:01.992Z,100915.56
2023-08-17T17:59:04.832Z,100918.22
2023-08-17T18:01:09.932Z,100920.91
2023-08-17T18:03:16.008Z,100922.50
2023-08-17T18:05:19.560Z,100926.16
2023-08-17T18:07:22.986Z,100923.91
2023-08-17T18:09:25.695Z,100930.41
2023-08-17T18:11:30.225Z,100927.31
2023-08-17T18:13:33.680Z,100928.53
2023-08-17T18:15:38.606Z,100925.16
2023-08-17T18:17:43.375Z,100927.59
2023-08-17T18:19:46.783Z,100919.88
2023-08-17T18:21:50.238Z,100928.19
2023-08-17T18:23:53.663Z,100912.84
2023-08-17T18:25:57.083Z,100906.91
2023-08-17T18:28:00.802Z,100914.13
2023-08-17T18:30:05.280Z,100911.38
2023-08-17T18:32:08.856Z,100906.34
2023-08-17T18:34:13.775Z,100909.28
2023-08-17T18:36:17.749Z,100908.47
2023-08-17T18:38:22.641Z,100909.81
2023-08-17T18:40:26.085Z,100910.59
2023-08-17T18:42:32.451Z,100915.84
2023-08-17T18:44:35.813Z,100910.06
2023-08-17T18:46:41.720Z,100916.00
2023-08-17T18:48:45.404Z,100908.31
2023-08-17T18:50:50.185Z,100914.81
2023-08-17T18:52:53.584Z,100916.25
2023-08-17T18:55:01.237Z,100910.13
2023-08-17T18:57:04.697Z,100907.91
2023-08-17T18:59:08.069Z,100916.50
2023-08-17T19:01:11.456Z,100918.38
2023-08-17T19:03:14.502Z,100936.78
2023-08-17T19:05:18.866Z,100939.38
2023-08-17T19:07:23.689Z,100922.78
2023-08-17T19:09:26.293Z,100936.44
2023-08-17T19:11:29.835Z,100939.00
2023-08-17T19:13:33.318Z,100938.09
2023-08-17T19:15:36.786Z,100948.06
2023-08-17T19:17:40.290Z,100943.69
2023-08-17T19:19:43.745Z,100877.63
2023-08-17T19:21:47.300Z,100946.38
2023-08-17T19:23:52.497Z,100953.53
2023-08-17T19:25:55.965Z,100945.66
2023-08-17T19:27:59.405Z,100955.34
2023-08-17T19:30:02.955Z,100945.72
2023-08-17T19:32:06.569Z,100930.66
2023-08-17T19:34:10.122Z,100948.34
2023-08-17T19:36:13.489Z,100940.53
2023-08-17T19:38:16.969Z,100940.44
2023-08-17T19:40:21.265Z,100949.34
2023-08-17T19:42:24.791Z,100937.00
2023-08-17T19:44:28.472Z,100934.38
2023-08-17T19:46:32.536Z,100927.31
2023-08-17T19:48:36.121Z,100929.13
2023-08-17T19:50:39.621Z,100924.81
2023-08-17T19:52:43.008Z,100931.88
2023-08-17T19:54:49.582Z,100937.94
2023-08-17T19:56:54.632Z,100944.91
2023-08-17T19:58:58.024Z,100942.19
2023-08-17T20:01:06.276Z,100940.25
2023-08-17T20:03:09.816Z,100941.25
2023-08-17T20:05:13.833Z,100947.59
2023-08-17T20:07:17.243Z,100894.03
2023-08-17T20:09:20.709Z,100947.78
2023-08-17T20:11:24.207Z,100935.41
2023-08-17T20:13:29.054Z,100945.19
2023-08-17T20:15:32.699Z,100946.97
2023-08-17T20:17:36.163Z,100941.53
2023-08-17T20:19:40.643Z,100911.78
2023-08-17T20:21:44.827Z,100928.56
2023-08-17T20:23:48.379Z,100941.59
2023-08-17T20:25:54.316Z,100943.25
2023-08-17T20:27:58.977Z,100943.28
2023-08-17T20:30:04.596Z,100936.31
2023-08-17T20:32:08.072Z,100939.06
2023-08-17T20:34:12.547Z,100936.97
2023-08-17T20:36:16.009Z,100943.88
2023-08-17T20:38:19.602Z,100944.81
2023-08-17T20:40:23.034Z,100944.81
2023-08-17T20:42:26.490Z,100942.06
2023-08-17T20:44:29.944Z,100939.38
2023-08-17T20:46:35.052Z,100944.84
2023-08-17T20:48:38.685Z,100943.22
2023-08-17T20:50:42.814Z,100944.97
2023-08-17T20:52:46.647Z,100940.50
2023-08-17T20:56:55.963Z,100942.66
2023-08-17T20:58:59.966Z,100944.50
2023-08-17T21:01:04.482Z,100947.19
2023-08-17T21:03:08.031Z,100940.13
2023-08-17T21:05:11.622Z,100941.81
2023-08-17T21:07:15.100Z,100941.78
2023-08-17T21:09:21.942Z,100933.97
2023-08-17T21:11:25.405Z,100941.06
2023-08-17T21:13:29.260Z,100932.22
2023-08-17T21:15:32.818Z,100939.31
2023-08-17T21:17:36.317Z,100867.16
2023-08-17T21:19:39.760Z,100924.34
2023-08-17T21:21:43.213Z,100919.97
2023-08-17T21:23:47.586Z,100921.69
2023-08-17T21:25:51.887Z,100927.91
2023-08-17T21:27:55.320Z,100918.25
2023-08-17T21:30:00.122Z,100923.50
2023-08-17T21:32:03.527Z,100923.47
2023-08-17T21:34:06.894Z,100921.72
2023-08-17T21:36:10.265Z,100921.72
2023-08-17T21:38:13.709Z,100923.50
2023-08-17T21:40:17.104Z,100923.47
2023-08-17T21:42:21.677Z,100920.88
2023-08-17T21:44:26.493Z,100919.13
2023-08-17T21:46:31.310Z,100924.44
2023-08-17T21:48:34.788Z,100921.78
2023-08-17T21:50:39.028Z,100910.34
2023-08-17T21:52:42.655Z,100913.84
2023-08-17T21:54:45.163Z,100927.84
2023-08-17T21:56:48.551Z,100923.38
2023-08-17T21:58:51.973Z,100926.06
2023-08-17T22:00:55.393Z,100928.72
2023-08-17T22:03:00.311Z,100927.03
2023-08-17T22:05:03.988Z,100921.78
2023-08-17T22:07:07.457Z,100927.91
2023-08-17T22:09:10.816Z,100922.63
2023-08-17T22:11:14.237Z,100923.50
2023-08-17T22:13:16.640Z,100914.69
2023-08-17T22:15:20.057Z,100912.97
2023-08-17T22:17:23.455Z,100908.50
2023-08-17T22:19:28.580Z,100908.53
2023-08-17T22:21:34.399Z,100912.97
2023-08-17T22:23:37.813Z,100906.78
2023-08-17T22:25:41.151Z,100904.03
2023-08-17T22:27:44.526Z,100911.09
2023-08-17T22:29:48.032Z,100910.28
2023-08-17T22:31:51.487Z,100904.13
2023-08-17T22:33:54.879Z,100898.84
2023-08-17T22:35:59.698Z,100902.38
2023-08-17T22:38:03.132Z,100900.53
2023-08-17T22:40:08.276Z,100904.09
2023-08-17T22:42:11.678Z,100895.28
2023-08-17T22:44:15.065Z,100883.09
2023-08-17T22:46:17.513Z,100890.97
2023-08-17T22:48:21.126Z,100889.13
2023-08-17T22:50:24.486Z,100885.66
2023-08-17T22:52:28.339Z,100881.19
2023-08-17T22:54:31.835Z,100887.41
2023-08-17T22:56:35.278Z,100887.34
2023-08-17T22:58:38.102Z,100884.75
2023-08-17T23:00:42.246Z,100883.88
2023-08-17T23:02:44.700Z,100887.41
2023-08-17T23:04:48.167Z,100885.66
2023-08-17T23:06:51.056Z,100883.94
2023-08-17T23:08:55.879Z,100886.50
2023-08-17T23:10:59.768Z,100881.25
2023-08-17T23:13:03.159Z,100877.72
2023-08-17T23:15:07.477Z,100869.78
2023-08-17T23:17:10.870Z,100863.59
2023-08-17T23:19:14.256Z,100865.34
2023-08-17T23:21:17.818Z,100868.03
2023-08-17T23:23:21.322Z,100872.50
2023-08-17T23:25:27.366Z,100865.44
2023-08-17T23:27:31.167Z,100868.06
2023-08-17T23:29:34.887Z,100869.88
2023-08-17T23:31:37.420Z,100869.00
2023-08-17T23:33:40.895Z,100872.50
2023-08-17T23:35:44.297Z,100859.22
2023-08-17T23:37:47.764Z,100867.03
2023-08-17T23:39:51.150Z,100864.56
2023-08-17T23:41:55.996Z,100864.59
2023-08-17T23:43:59.357Z,100859.31
2023-08-17T23:46:02.803Z,100853.13
2023-08-17T23:48:07.189Z,100848.69
2023-08-17T23:50:11.591Z,100850.50